Terminal Aerodrome Forecast
Issued by NWS

Home | Current Version | Previous Version | Text Only | Print | Product List | Glossary On
Versions: 1 2 3 4 5 6 7 8 9 10 11 12 13
000
FTUS43 KFGF 212112 AAC
TAFDVL
TAF AMD
KDVL 212112Z 2121/2218 27017KT P6SM -RA OVC070
     FM220100 27016KT P6SM BKN070
     FM220700 27013KT P6SM SCT110
     FM221400 24010KT P6SM FEW250=

USA.gov is the U.S. government's official web portal to all federal, state and local government web resources and services.